createdAt,value
2017-12-31T17:12:55.361Z,26.00
2017-12-31T17:15:23.582Z,25.90
2017-12-31T17:17:51.046Z,25.90
2017-12-31T17:20:18.932Z,25.90
2017-12-31T17:22:46.389Z,25.90
2017-12-31T17:25:13.846Z,26.10
2017-12-31T17:27:41.358Z,26.10
2017-12-31T17:30:08.822Z,26.20
2017-12-31T17:32:36.280Z,26.20
2017-12-31T17:35:03.754Z,26.20
2017-12-31T17:37:31.201Z,26.30
2017-12-31T17:39:58.662Z,26.30
2017-12-31T17:42:26.155Z,26.40
2017-12-31T17:44:54.389Z,26.30
2017-12-31T17:47:21.855Z,26.30
2017-12-31T17:49:49.392Z,26.30
2017-12-31T17:52:16.951Z,26.40
2017-12-31T17:54:44.404Z,26.30
2017-12-31T17:57:11.897Z,26.20
2017-12-31T17:59:39.354Z,26.10
2017-12-31T18:02:06.802Z,25.90
2017-12-31T18:04:34.882Z,25.80
2017-12-31T18:07:02.334Z,25.80
2017-12-31T18:09:29.785Z,25.60
2017-12-31T18:11:57.458Z,25.60
2017-12-31T18:14:24.923Z,25.50
2017-12-31T18:16:52.389Z,25.40
2017-12-31T18:19:19.857Z,25.30
2017-12-31T18:21:48.090Z,25.20
2017-12-31T18:24:15.594Z,25.20
2017-12-31T18:26:43.845Z,24.90
2017-12-31T18:29:11.301Z,24.90
2017-12-31T18:31:38.767Z,24.80
2017-12-31T18:34:06.654Z,24.60
2017-12-31T18:36:34.880Z,24.50
2017-12-31T18:39:02.338Z,24.50
2017-12-31T18:41:29.813Z,24.50
2017-12-31T18:43:58.781Z,24.40
2017-12-31T18:46:26.300Z,24.40
2017-12-31T18:48:53.726Z,24.20
2017-12-31T18:51:21.201Z,24.30
2017-12-31T18:53:49.433Z,24.10
2017-12-31T18:56:17.012Z,24.10
2017-12-31T18:58:44.527Z,24.00
2017-12-31T19:01:11.984Z,23.90
2017-12-31T19:03:39.786Z,23.90
2017-12-31T19:06:07.254Z,23.80
2017-12-31T19:08:34.726Z,23.80
2017-12-31T19:11:03.006Z,23.80
2017-12-31T19:13:31.233Z,23.70
2017-12-31T19:15:58.693Z,23.70
2017-12-31T19:18:26.165Z,23.70
2017-12-31T19:20:54.446Z,23.70
2017-12-31T19:23:21.918Z,23.70
2017-12-31T19:25:50.174Z,23.50
2017-12-31T19:28:17.646Z,23.50
2017-12-31T19:30:46.357Z,23.50
2017-12-31T19:33:13.894Z,23.40
2017-12-31T19:35:42.121Z,23.30
2017-12-31T19:38:09.577Z,23.20
2017-12-31T19:40:37.686Z,23.20
2017-12-31T19:43:05.145Z,23.10
2017-12-31T19:45:32.602Z,23.10
2017-12-31T19:48:00.181Z,23.00
2017-12-31T19:50:28.413Z,23.00
2017-12-31T19:52:55.948Z,22.90
2017-12-31T19:55:23.429Z,23.00
2017-12-31T19:57:50.886Z,23.10
2017-12-31T20:00:18.349Z,23.20
2017-12-31T20:02:45.821Z,23.10
2017-12-31T20:05:13.290Z,23.00
2017-12-31T20:07:41.518Z,22.90
2017-12-31T20:10:08.991Z,22.90
2017-12-31T20:12:36.449Z,22.90
2017-12-31T20:15:03.910Z,22.90
2017-12-31T20:17:31.383Z,22.90
2017-12-31T20:19:59.609Z,22.90
2017-12-31T20:22:27.082Z,22.90
2017-12-31T20:24:54.558Z,22.90
2017-12-31T20:27:22.025Z,22.90
2017-12-31T20:29:50.355Z,22.90
2017-12-31T20:32:17.822Z,22.90
2017-12-31T20:34:45.278Z,22.90
2017-12-31T20:37:12.737Z,22.80
2017-12-31T20:39:40.213Z,22.80
2017-12-31T20:42:07.670Z,22.80
2017-12-31T20:44:35.129Z,22.80
2017-12-31T20:47:02.611Z,22.80
2017-12-31T20:49:30.062Z,22.80
2017-12-31T20:51:57.522Z,22.80
2017-12-31T20:54:24.990Z,22.80
2017-12-31T20:56:53.213Z,23.00
2017-12-31T20:59:20.673Z,22.90
2017-12-31T21:01:48.671Z,23.00
2017-12-31T21:04:16.134Z,23.00
2017-12-31T21:06:43.586Z,23.00
2017-12-31T21:09:12.882Z,23.00
2017-12-31T21:11:41.105Z,23.00
2017-12-31T21:14:08.570Z,23.00
2017-12-31T21:16:36.036Z,23.00
2017-12-31T23:40:10.109Z,21.80
2017-12-31T23:43:49.603Z,21.70
